sensor_id;sensor_type;location;lat;lon;timestamp;pressure;altitude;pressure_sealevel;temperature;humidity
60725;BME280;59881;36.722;-4.462;2023-06-19T00:01:12;100395.78;;;21.65;65.39
60725;BME280;59881;36.722;-4.462;2023-06-19T00:03:38;99893.88;;;18.48;64.96
60725;BME280;59881;36.722;-4.462;2023-06-19T00:06:05;100210.44;;;19.85;65.25
60725;BME280;59881;36.722;-4.462;2023-06-19T00:08:31;99760.47;;;15.87;64.88
60725;BME280;59881;36.722;-4.462;2023-06-19T00:11:16;100395.69;;;21.58;65.46
60725;BME280;59881;36.722;-4.462;2023-06-19T00:13:42;100389.34;;;21.59;65.35
60725;BME280;59881;36.722;-4.462;2023-06-19T00:16:07;100271.78;;;20.72;65.28
60725;BME280;59881;36.722;-4.462;2023-06-19T00:18:33;100254.44;;;20.68;65.38
60725;BME280;59881;36.722;-4.462;2023-06-19T00:21:08;99928.66;;;18.71;64.93
60725;BME280;59881;36.722;-4.462;2023-06-19T00:23:33;100269.78;;;20.97;64.67
60725;BME280;59881;36.722;-4.462;2023-06-19T00:25:59;100057.09;;;19.15;64.26
60725;BME280;59881;36.722;-4.462;2023-06-19T00:28:29;100392.94;;;21.66;64.15
60725;BME280;59881;36.722;-4.462;2023-06-19T00:30:55;99970.63;;;18.85;63.30
60725;BME280;59881;36.722;-4.462;2023-06-19T00:33:21;99568.91;;;16.88;63.38
60725;BME280;59881;36.722;-4.462;2023-06-19T00:35:47;100354.94;;;21.63;63.15
60725;BME280;59881;36.722;-4.462;2023-06-19T00:38:13;100036.34;;;19.26;62.93
60725;BME280;59881;36.722;-4.462;2023-06-19T00:40:39;100339.97;;;21.68;63.01
60725;BME280;59881;36.722;-4.462;2023-06-19T00:43:05;100177.06;;;20.81;62.69
60725;BME280;59881;36.722;-4.462;2023-06-19T00:45:31;100443.88;;;21.66;62.53
60725;BME280;59881;36.722;-4.462;2023-06-19T00:47:57;99763.50;;;17.82;62.37
60725;BME280;59881;36.722;-4.462;2023-06-19T00:50:24;99861.41;;;18.84;62.55
60725;BME280;59881;36.722;-4.462;2023-06-19T00:52:50;100375.22;;;21.65;62.90
60725;BME280;59881;36.722;-4.462;2023-06-19T00:55:16;99843.06;;;18.49;62.59
60725;BME280;59881;36.722;-4.462;2023-06-19T00:57:42;100343.50;;;21.69;62.50
60725;BME280;59881;36.722;-4.462;2023-06-19T01:00:09;100061.53;;;19.62;62.58
60725;BME280;59881;36.722;-4.462;2023-06-19T01:02:37;99367.44;;;15.38;62.10
60725;BME280;59881;36.722;-4.462;2023-06-19T01:05:03;100332.50;;;21.64;62.47
60725;BME280;59881;36.722;-4.462;2023-06-19T01:07:55;100067.94;;;20.08;62.25
60725;BME280;59881;36.722;-4.462;2023-06-19T01:10:34;100379.06;;;21.63;62.48
60725;BME280;59881;36.722;-4.462;2023-06-19T01:13:17;100331.19;;;21.60;62.53
60725;BME280;59881;36.722;-4.462;2023-06-19T01:15:47;100051.25;;;19.82;62.72
60725;BME280;59881;36.722;-4.462;2023-06-19T01:18:13;100110.94;;;19.67;62.83
60725;BME280;59881;36.722;-4.462;2023-06-19T01:20:40;100330.91;;;21.55;63.34
60725;BME280;59881;36.722;-4.462;2023-06-19T01:23:09;100091.22;;;19.76;63.10
60725;BME280;59881;36.722;-4.462;2023-06-19T01:25:35;100422.59;;;21.50;63.46
60725;BME280;59881;36.722;-4.462;2023-06-19T01:28:02;99967.44;;;18.90;63.18
60725;BME280;59881;36.722;-4.462;2023-06-19T01:30:31;100020.25;;;19.42;63.66
60725;BME280;59881;36.722;-4.462;2023-06-19T01:33:19;100367.03;;;21.44;64.14
60725;BME280;59881;36.722;-4.462;2023-06-19T01:35:46;100063.25;;;19.55;64.61
60725;BME280;59881;36.722;-4.462;2023-06-19T01:38:14;100381.28;;;21.36;65.54
60725;BME280;59881;36.722;-4.462;2023-06-19T01:40:40;100350.63;;;21.39;65.93
60725;BME280;59881;36.722;-4.462;2023-06-19T01:43:08;99970.22;;;19.05;65.86
60725;BME280;59881;36.722;-4.462;2023-06-19T01:45:34;100380.41;;;21.44;66.25
60725;BME280;59881;36.722;-4.462;2023-06-19T01:48:00;100293.28;;;20.64;66.31
60725;BME280;59881;36.722;-4.462;2023-06-19T01:50:25;99840.91;;;17.81;66.29
60725;BME280;59881;36.722;-4.462;2023-06-19T01:52:52;100383.66;;;21.54;66.30
60725;BME280;59881;36.722;-4.462;2023-06-19T01:55:17;99715.56;;;17.82;65.91
60725;BME280;59881;36.722;-4.462;2023-06-19T01:57:43;100311.22;;;21.62;65.96
60725;BME280;59881;36.722;-4.462;2023-06-19T02:00:11;100300.31;;;21.64;65.68
60725;BME280;59881;36.722;-4.462;2023-06-19T02:02:37;100347.53;;;21.65;65.27
60725;BME280;59881;36.722;-4.462;2023-06-19T02:05:03;100292.13;;;21.65;65.04
60725;BME280;59881;36.722;-4.462;2023-06-19T02:07:28;100153.13;;;20.80;64.77
60725;BME280;59881;36.722;-4.462;2023-06-19T02:09:54;100030.53;;;19.53;63.52
60725;BME280;59881;36.722;-4.462;2023-06-19T02:12:19;100279.81;;;21.71;63.26
60725;BME280;59881;36.722;-4.462;2023-06-19T02:14:45;100285.44;;;21.76;62.80
60725;BME280;59881;36.722;-4.462;2023-06-19T02:17:10;100192.91;;;20.68;62.05
60725;BME280;59881;36.722;-4.462;2023-06-19T02:19:36;100276.47;;;21.84;61.46
60725;BME280;59881;36.722;-4.462;2023-06-19T02:22:02;100294.22;;;21.85;60.93
60725;BME280;59881;36.722;-4.462;2023-06-19T02:35:35;99965.78;;;19.74;61.30
60725;BME280;59881;36.722;-4.462;2023-06-19T02:38:00;100277.09;;;21.56;62.15
60725;BME280;59881;36.722;-4.462;2023-06-19T02:40:26;99992.84;;;19.94;61.94
60725;BME280;59881;36.722;-4.462;2023-06-19T02:42:52;100239.31;;;21.51;62.58
60725;BME280;59881;36.722;-4.462;2023-06-19T02:45:17;99892.44;;;19.08;62.58
60725;BME280;59881;36.722;-4.462;2023-06-19T02:47:43;100141.84;;;20.70;63.08
60725;BME280;59881;36.722;-4.462;2023-06-19T02:50:08;100127.09;;;20.74;63.08
60725;BME280;59881;36.722;-4.462;2023-06-19T02:52:34;100261.25;;;21.32;63.35
60725;BME280;59881;36.722;-4.462;2023-06-19T02:54:59;100265.72;;;21.54;63.38
60725;BME280;59881;36.722;-4.462;2023-06-19T02:57:25;99399.69;;;16.31;63.60
60725;BME280;59881;36.722;-4.462;2023-06-19T02:59:51;100059.81;;;20.39;63.89
60725;BME280;59881;36.722;-4.462;2023-06-19T03:02:16;99643.31;;;18.08;63.69
60725;BME280;59881;36.722;-4.462;2023-06-19T03:04:42;100208.28;;;21.57;63.50
60725;BME280;59881;36.722;-4.462;2023-06-19T03:07:08;100005.00;;;19.82;63.65
60725;BME280;59881;36.722;-4.462;2023-06-19T03:09:33;99737.13;;;18.04;63.44
60725;BME280;59881;36.722;-4.462;2023-06-19T03:11:59;100191.47;;;21.48;63.65
60725;BME280;59881;36.722;-4.462;2023-06-19T03:14:24;99774.66;;;18.88;63.24
60725;BME280;59881;36.722;-4.462;2023-06-19T03:16:50;100014.44;;;20.31;63.77
60725;BME280;59881;36.722;-4.462;2023-06-19T03:19:15;100091.38;;;20.81;64.01
60725;BME280;59881;36.722;-4.462;2023-06-19T03:21:41;99998.34;;;19.78;64.16
60725;BME280;59881;36.722;-4.462;2023-06-19T03:24:07;100212.50;;;21.51;64.57
60725;BME280;59881;36.722;-4.462;2023-06-19T03:26:32;100231.03;;;21.23;65.33
60725;BME280;59881;36.722;-4.462;2023-06-19T03:28:58;100040.69;;;20.27;65.57
60725;BME280;59881;36.722;-4.462;2023-06-19T03:31:24;99723.63;;;18.59;65.38
60725;BME280;59881;36.722;-4.462;2023-06-19T03:33:49;100194.78;;;21.50;65.87
60725;BME280;59881;36.722;-4.462;2023-06-19T03:36:15;100183.59;;;21.46;66.05
60725;BME280;59881;36.722;-4.462;2023-06-19T03:38:40;99810.63;;;19.15;66.03
60725;BME280;59881;36.722;-4.462;2023-06-19T03:41:06;99773.63;;;19.12;65.73
60725;BME280;59881;36.722;-4.462;2023-06-19T03:43:31;100065.34;;;20.75;65.69
60725;BME280;59881;36.722;-4.462;2023-06-19T03:45:57;100234.88;;;21.43;65.45
60725;BME280;59881;36.722;-4.462;2023-06-19T03:48:22;100202.72;;;21.43;64.99
60725;BME280;59881;36.722;-4.462;2023-06-19T03:50:48;100277.44;;;21.38;64.86
60725;BME280;59881;36.722;-4.462;2023-06-19T03:53:13;100194.75;;;21.35;64.67
60725;BME280;59881;36.722;-4.462;2023-06-19T03:55:39;100235.13;;;21.19;64.93
60725;BME280;59881;36.722;-4.462;2023-06-19T03:58:04;100116.97;;;20.84;65.57
60725;BME280;59881;36.722;-4.462;2023-06-19T04:00:31;99899.69;;;19.45;65.53
60725;BME280;59881;36.722;-4.462;2023-06-19T04:02:57;100092.78;;;20.54;66.10
60725;BME280;59881;36.722;-4.462;2023-06-19T04:05:22;99932.88;;;19.51;66.72
60725;BME280;59881;36.722;-4.462;2023-06-19T04:07:48;99613.75;;;17.55;66.92
60725;BME280;59881;36.722;-4.462;2023-06-19T04:10:14;100238.13;;;21.16;67.53
60725;BME280;59881;36.722;-4.462;2023-06-19T04:12:40;100046.97;;;19.73;67.78
60725;BME280;59881;36.722;-4.462;2023-06-19T04:15:06;100259.47;;;21.09;68.16
60725;BME280;59881;36.722;-4.462;2023-06-19T04:17:32;99597.19;;;17.37;67.59
60725;BME280;59881;36.722;-4.462;2023-06-19T04:19:57;100196.88;;;21.10;67.91
60725;BME280;59881;36.722;-4.462;2023-06-19T04:22:23;100129.22;;;20.63;67.66
60725;BME280;59881;36.722;-4.462;2023-06-19T04:24:49;99774.78;;;18.40;67.45
60725;BME280;59881;36.722;-4.462;2023-06-19T04:27:15;99887.28;;;19.06;67.45
60725;BME280;59881;36.722;-4.462;2023-06-19T04:29:41;100226.88;;;21.05;67.34
60725;BME280;59881;36.722;-4.462;2023-06-19T04:32:06;100240.25;;;21.05;67.21
60725;BME280;59881;36.722;-4.462;2023-06-19T04:34:38;100233.06;;;21.06;66.77
60725;BME280;59881;36.722;-4.462;2023-06-19T04:37:04;100061.38;;;19.33;66.25
60725;BME280;59881;36.722;-4.462;2023-06-19T04:39:30;99074.34;;;13.78;65.70
60725;BME280;59881;36.722;-4.462;2023-06-19T04:41:55;100248.91;;;20.93;65.94
60725;BME280;59881;36.722;-4.462;2023-06-19T04:44:21;99507.13;;;16.62;65.19
60725;BME280;59881;36.722;-4.462;2023-06-19T04:46:47;99933.72;;;19.51;65.41
60725;BME280;59881;36.722;-4.462;2023-06-19T04:49:13;99931.69;;;19.76;64.68
60725;BME280;59881;36.722;-4.462;2023-06-19T04:51:40;100115.28;;;20.83;64.39
60725;BME280;59881;36.722;-4.462;2023-06-19T04:54:06;100195.00;;;21.40;63.83
60725;BME280;59881;36.722;-4.462;2023-06-19T04:56:31;100242.78;;;20.61;63.76
60725;BME280;59881;36.722;-4.462;2023-06-19T04:58:57;100263.81;;;21.48;62.97
60725;BME280;59881;36.722;-4.462;2023-06-19T05:01:25;100206.16;;;21.52;62.69
60725;BME280;59881;36.722;-4.462;2023-06-19T05:03:54;100187.84;;;21.56;62.29
60725;BME280;59881;36.722;-4.462;2023-06-19T05:06:23;99913.41;;;19.88;61.71
60725;BME280;59881;36.722;-4.462;2023-06-19T05:08:49;99595.00;;;17.80;60.55
60725;BME280;59881;36.722;-4.462;2023-06-19T05:13:40;100276.13;;;21.72;60.75
60725;BME280;59881;36.722;-4.462;2023-06-19T05:16:06;98809.22;;;13.50;59.90
60725;BME280;59881;36.722;-4.462;2023-06-19T05:18:31;100002.75;;;20.09;60.70
60725;BME280;59881;36.722;-4.462;2023-06-19T05:20:57;100041.50;;;20.65;60.48
60725;BME280;59881;36.722;-4.462;2023-06-19T05:23:23;99899.22;;;20.32;59.77
60725;BME280;59881;36.722;-4.462;2023-06-19T05:25:48;100173.91;;;21.97;59.83
60725;BME280;59881;36.722;-4.462;2023-06-19T05:28:14;100207.00;;;22.04;59.28
60725;BME280;59881;36.722;-4.462;2023-06-19T05:30:39;100216.50;;;22.06;59.00
60725;BME280;59881;36.722;-4.462;2023-06-19T05:33:04;100090.91;;;21.22;59.58
60725;BME280;59881;36.722;-4.462;2023-06-19T05:35:30;100138.06;;;21.83;59.64
60725;BME280;59881;36.722;-4.462;2023-06-19T05:37:57;100166.00;;;22.10;59.72
60725;BME280;59881;36.722;-4.462;2023-06-19T05:40:22;100170.91;;;22.06;59.49
60725;BME280;59881;36.722;-4.462;2023-06-19T05:42:48;100190.72;;;22.05;59.40
60725;BME280;59881;36.722;-4.462;2023-06-19T05:45:13;100077.44;;;21.16;59.71
60725;BME280;59881;36.722;-4.462;2023-06-19T05:47:39;100082.97;;;21.29;59.37
60725;BME280;59881;36.722;-4.462;2023-06-19T05:50:05;99840.00;;;19.76;59.44
60725;BME280;59881;36.722;-4.462;2023-06-19T05:52:30;100195.56;;;21.95;60.20
60725;BME280;59881;36.722;-4.462;2023-06-19T05:54:56;100197.19;;;21.96;60.52
60725;BME280;59881;36.722;-4.462;2023-06-19T05:57:23;100037.66;;;20.98;61.10
60725;BME280;59881;36.722;-4.462;2023-06-19T05:59:49;99719.47;;;19.03;61.71
60725;BME280;59881;36.722;-4.462;2023-06-19T06:02:15;100208.47;;;22.06;62.43
60725;BME280;59881;36.722;-4.462;2023-06-19T06:04:41;99830.34;;;19.90;62.65
60725;BME280;59881;36.722;-4.462;2023-06-19T06:07:08;100173.25;;;22.31;62.97
60725;BME280;59881;36.722;-4.462;2023-06-19T06:09:34;100215.53;;;22.93;62.88
60725;BME280;59881;36.722;-4.462;2023-06-19T06:11:59;99893.41;;;21.31;62.21
60725;BME280;59881;36.722;-4.462;2023-06-19T06:14:26;100209.75;;;24.49;60.94
60725;BME280;59881;36.722;-4.462;2023-06-19T06:16:51;99641.19;;;22.37;57.22
60725;BME280;59881;36.722;-4.462;2023-06-19T06:19:18;100184.28;;;26.54;53.89
60725;BME280;59881;36.722;-4.462;2023-06-19T06:21:43;100014.38;;;25.38;52.94
60725;BME280;59881;36.722;-4.462;2023-06-19T06:24:09;100100.69;;;25.70;52.69
60725;BME280;59881;36.722;-4.462;2023-06-19T06:26:34;100241.66;;;26.49;52.65
60725;BME280;59881;36.722;-4.462;2023-06-19T06:29:00;100235.56;;;27.17;50.65
60725;BME280;59881;36.722;-4.462;2023-06-19T06:31:26;100202.34;;;27.10;49.16
60725;BME280;59881;36.722;-4.462;2023-06-19T06:33:52;99963.09;;;25.07;49.84
60725;BME280;59881;36.722;-4.462;2023-06-19T06:36:18;100222.19;;;26.09;50.88
60725;BME280;59881;36.722;-4.462;2023-06-19T06:38:44;100171.84;;;24.91;51.87
60725;BME280;59881;36.722;-4.462;2023-06-19T06:41:09;100277.56;;;25.33;53.03
60725;BME280;59881;36.722;-4.462;2023-06-19T06:43:35;100328.13;;;24.91;54.25
60725;BME280;59881;36.722;-4.462;2023-06-19T06:46:00;100271.69;;;24.49;55.33
60725;BME280;59881;36.722;-4.462;2023-06-19T06:48:26;99765.41;;;21.48;55.52
60725;BME280;59881;36.722;-4.462;2023-06-19T06:50:51;100259.22;;;24.48;55.61
60725;BME280;59881;36.722;-4.462;2023-06-19T06:53:26;100118.19;;;23.61;56.23
60725;BME280;59881;36.722;-4.462;2023-06-19T06:55:53;99944.34;;;22.59;56.17
60725;BME280;59881;36.722;-4.462;2023-06-19T06:58:19;100261.56;;;24.71;56.39
60725;BME280;59881;36.722;-4.462;2023-06-19T07:00:44;100275.44;;;24.82;55.89
60725;BME280;59881;36.722;-4.462;2023-06-19T07:03:10;100184.91;;;24.74;55.47
60725;BME280;59881;36.722;-4.462;2023-06-19T07:05:36;100243.38;;;25.27;55.30
60725;BME280;59881;36.722;-4.462;2023-06-19T07:08:01;100239.81;;;25.39;54.73
60725;BME280;59881;36.722;-4.462;2023-06-19T07:10:27;100233.81;;;25.37;54.15
60725;BME280;59881;36.722;-4.462;2023-06-19T07:12:52;100232.56;;;25.27;53.56
60725;BME280;59881;36.722;-4.462;2023-06-19T07:15:18;100117.16;;;24.70;53.63
60725;BME280;59881;36.722;-4.462;2023-06-19T07:17:44;100265.25;;;25.70;52.72
60725;BME280;59881;36.722;-4.462;2023-06-19T07:20:10;99921.31;;;23.92;52.81
60725;BME280;59881;36.722;-4.462;2023-06-19T07:22:36;100268.22;;;26.52;52.08
60725;BME280;59881;36.722;-4.462;2023-06-19T07:25:02;100033.88;;;25.34;50.98
60725;BME280;59881;36.722;-4.462;2023-06-19T07:27:29;100266.72;;;27.20;49.88
60725;BME280;59881;36.722;-4.462;2023-06-19T08:08:47;100284.97;;;36.34;30.28
60725;BME280;59881;36.722;-4.462;2023-06-19T08:11:13;100198.31;;;34.82;30.64
60725;BME280;59881;36.722;-4.462;2023-06-19T08:13:38;100277.13;;;33.87;31.31
60725;BME280;59881;36.722;-4.462;2023-06-19T08:16:04;100189.13;;;32.47;32.98
60725;BME280;59881;36.722;-4.462;2023-06-19T08:18:30;100025.75;;;30.99;34.02
60725;BME280;59881;36.722;-4.462;2023-06-19T08:20:55;99811.59;;;28.78;35.23
60725;BME280;59881;36.722;-4.462;2023-06-19T08:23:21;100113.22;;;30.23;36.35
60725;BME280;59881;36.722;-4.462;2023-06-19T08:25:46;99952.69;;;29.57;35.45
60725;BME280;59881;36.722;-4.462;2023-06-19T08:28:12;100104.34;;;31.40;34.53
60725;BME280;59881;36.722;-4.462;2023-06-19T08:30:37;100194.47;;;34.17;31.45
60725;BME280;59881;36.722;-4.462;2023-06-19T08:33:03;100171.53;;;35.70;28.46
60725;BME280;59881;36.722;-4.462;2023-06-19T08:35:28;100284.69;;;36.36;28.32
60725;BME280;59881;36.722;-4.462;2023-06-19T08:37:54;100131.13;;;35.41;28.32
60725;BME280;59881;36.722;-4.462;2023-06-19T08:40:20;100028.72;;;34.77;28.32
60725;BME280;59881;36.722;-4.462;2023-06-19T08:42:45;100190.00;;;32.90;33.13
60725;BME280;59881;36.722;-4.462;2023-06-19T08:45:11;100375.22;;;31.42;37.59
60725;BME280;59881;36.722;-4.462;2023-06-19T08:47:36;100100.63;;;30.00;38.10
60725;BME280;59881;36.722;-4.462;2023-06-19T08:50:02;100347.88;;;32.32;36.98
60725;BME280;59881;36.722;-4.462;2023-06-19T08:52:28;99987.09;;;31.19;35.17
60725;BME280;59881;36.722;-4.462;2023-06-19T08:54:54;100339.94;;;34.34;33.46
60725;BME280;59881;36.722;-4.462;2023-06-19T08:57:19;100119.56;;;33.29;32.82
60725;BME280;59881;36.722;-4.462;2023-06-19T08:59:49;100253.03;;;34.57;32.07
60725;BME280;59881;36.722;-4.462;2023-06-19T09:02:15;100340.59;;;35.49;31.14
60725;BME280;59881;36.722;-4.462;2023-06-19T09:04:41;99918.31;;;32.94;31.10
60725;BME280;59881;36.722;-4.462;2023-06-19T09:07:07;100330.50;;;36.30;30.30
60725;BME280;59881;36.722;-4.462;2023-06-19T09:09:34;100092.41;;;34.98;30.31
60725;BME280;59881;36.722;-4.462;2023-06-19T09:12:03;100361.41;;;36.96;29.62
60725;BME280;59881;36.722;-4.462;2023-06-19T09:14:37;100347.22;;;36.34;29.80
60725;BME280;59881;36.722;-4.462;2023-06-19T09:17:03;100363.22;;;36.16;29.90
60725;BME280;59881;36.722;-4.462;2023-06-19T09:19:29;100359.44;;;35.87;30.59
60725;BME280;59881;36.722;-4.462;2023-06-19T09:22:06;99871.25;;;31.93;32.09
60725;BME280;59881;36.722;-4.462;2023-06-19T09:24:37;100174.22;;;33.34;32.57
60725;BME280;59881;36.722;-4.462;2023-06-19T09:27:11;100284.56;;;33.44;34.26
60725;BME280;59881;36.722;-4.462;2023-06-19T09:29:42;100072.38;;;31.79;34.16
60725;BME280;59881;36.722;-4.462;2023-06-19T09:32:19;100368.44;;;33.96;34.02
60725;BME280;59881;36.722;-4.462;2023-06-19T09:34:45;100372.50;;;33.88;34.34
60725;BME280;59881;36.722;-4.462;2023-06-19T09:37:11;100456.75;;;34.49;33.69
60725;BME280;59881;36.722;-4.462;2023-06-19T09:39:37;99939.09;;;32.37;32.96
60725;BME280;59881;36.722;-4.462;2023-06-19T09:42:08;100366.00;;;35.91;31.65
60725;BME280;59881;36.722;-4.462;2023-06-19T09:44:41;100373.63;;;36.19;31.00
60725;BME280;59881;36.722;-4.462;2023-06-19T09:47:16;100371.34;;;36.37;30.97
60725;BME280;59881;36.722;-4.462;2023-06-19T09:49:49;100372.97;;;36.43;30.99
60725;BME280;59881;36.722;-4.462;2023-06-19T09:52:16;100392.50;;;36.31;30.81
60725;BME280;59881;36.722;-4.462;2023-06-19T09:54:43;100392.38;;;35.15;32.31
60725;BME280;59881;36.722;-4.462;2023-06-19T09:57:10;100172.91;;;33.05;33.85
60725;BME280;59881;36.722;-4.462;2023-06-19T09:59:38;100264.81;;;32.62;35.46
60725;BME280;59881;36.722;-4.462;2023-06-19T10:02:05;100393.50;;;31.81;37.78
60725;BME280;59881;36.722;-4.462;2023-06-19T10:04:44;99896.81;;;29.73;36.94
60725;BME280;59881;36.722;-4.462;2023-06-19T10:10:00;100410.91;;;34.87;33.55
60725;BME280;59881;36.722;-4.462;2023-06-19T10:12:41;100412.84;;;34.87;33.73
60725;BME280;59881;36.722;-4.462;2023-06-19T10:17:48;100207.25;;;33.01;34.25
60725;BME280;59881;36.722;-4.462;2023-06-19T10:20:26;100205.56;;;33.32;34.08
60725;BME280;59881;36.722;-4.462;2023-06-19T10:23:11;100123.28;;;31.51;35.15
60725;BME280;59881;36.722;-4.462;2023-06-19T10:25:41;100419.56;;;31.76;38.37
60725;BME280;59881;36.722;-4.462;2023-06-19T10:30:56;100325.41;;;29.16;41.46
60725;BME280;59881;36.722;-4.462;2023-06-19T10:33:23;100437.03;;;29.01;43.58
60725;BME280;59881;36.722;-4.462;2023-06-19T10:35:49;100478.22;;;28.36;45.40
60725;BME280;59881;36.722;-4.462;2023-06-19T10:38:16;100146.22;;;25.98;46.77
60725;BME280;59881;36.722;-4.462;2023-06-19T10:40:43;100437.94;;;27.14;48.76
60725;BME280;59881;36.722;-4.462;2023-06-19T10:43:10;100462.63;;;26.92;49.13
60725;BME280;59881;36.722;-4.462;2023-06-19T10:45:36;100194.84;;;25.20;49.79
60725;BME280;59881;36.722;-4.462;2023-06-19T10:48:04;100452.66;;;26.86;49.80
60725;BME280;59881;36.722;-4.462;2023-06-19T10:50:34;100294.75;;;25.45;50.08
60725;BME280;59881;36.722;-4.462;2023-06-19T10:53:00;100190.91;;;24.96;49.71
60725;BME280;59881;36.722;-4.462;2023-06-19T10:55:26;100185.09;;;24.59;51.13
60725;BME280;59881;36.722;-4.462;2023-06-19T10:57:51;100501.78;;;26.50;51.69
60725;BME280;59881;36.722;-4.462;2023-06-19T11:00:32;100453.00;;;26.38;52.71
60725;BME280;59881;36.722;-4.462;2023-06-19T11:02:58;100448.78;;;26.69;53.04
60725;BME280;59881;36.722;-4.462;2023-06-19T11:05:25;100464.50;;;26.85;52.75
60725;BME280;59881;36.722;-4.462;2023-06-19T11:07:55;100472.31;;;26.61;53.44
60725;BME280;59881;36.722;-4.462;2023-06-19T11:10:23;100464.66;;;26.25;54.76
60725;BME280;59881;36.722;-4.462;2023-06-19T11:12:56;100142.59;;;24.34;55.01
60725;BME280;59881;36.722;-4.462;2023-06-19T11:17:55;100458.59;;;26.43;54.79
60725;BME280;59881;36.722;-4.462;2023-06-19T11:20:21;100456.34;;;26.27;55.29
60725;BME280;59881;36.722;-4.462;2023-06-19T11:22:47;100452.59;;;26.34;55.61
60725;BME280;59881;36.722;-4.462;2023-06-19T11:25:12;100046.81;;;23.59;54.79
60725;BME280;59881;36.722;-4.462;2023-06-19T11:27:39;100555.44;;;26.39;55.41
60725;BME280;59881;36.722;-4.462;2023-06-19T11:30:05;100335.16;;;24.98;55.36
60725;BME280;59881;36.722;-4.462;2023-06-19T11:32:41;100487.34;;;25.91;56.37
60725;BME280;59881;36.722;-4.462;2023-06-19T11:35:10;100351.72;;;24.82;57.84
60725;BME280;59881;36.722;-4.462;2023-06-19T11:37:36;100057.19;;;23.13;57.93
60725;BME280;59881;36.722;-4.462;2023-06-19T11:40:02;100431.69;;;25.96;56.19
60725;BME280;59881;36.722;-4.462;2023-06-19T11:42:51;100449.34;;;26.84;54.80
60725;BME280;59881;36.722;-4.462;2023-06-19T11:45:17;100134.34;;;24.63;54.39
60725;BME280;59881;36.722;-4.462;2023-06-19T11:47:44;100416.09;;;26.83;54.23
60725;BME280;59881;36.722;-4.462;2023-06-19T11:50:10;100327.00;;;26.70;52.80
60725;BME280;59881;36.722;-4.462;2023-06-19T11:52:36;100153.44;;;26.11;51.70
60725;BME280;59881;36.722;-4.462;2023-06-19T11:55:02;99911.69;;;24.43;51.34
60725;BME280;59881;36.722;-4.462;2023-06-19T11:57:28;100312.81;;;27.07;51.47
60725;BME280;59881;36.722;-4.462;2023-06-19T11:59:53;99890.00;;;24.38;50.92
60725;BME280;59881;36.722;-4.462;2023-06-19T12:02:20;100420.28;;;27.43;51.84
60725;BME280;59881;36.722;-4.462;2023-06-19T12:04:46;100100.31;;;25.02;52.12
60725;BME280;59881;36.722;-4.462;2023-06-19T12:07:12;100053.38;;;24.64;52.04
60725;BME280;59881;36.722;-4.462;2023-06-19T12:09:37;100178.44;;;25.28;52.27
60725;BME280;59881;36.722;-4.462;2023-06-19T12:12:05;100228.16;;;25.46;52.48
60725;BME280;59881;36.722;-4.462;2023-06-19T12:14:31;100137.25;;;24.74;53.68
60725;BME280;59881;36.722;-4.462;2023-06-19T12:16:56;100413.72;;;26.55;54.05
60725;BME280;59881;36.722;-4.462;2023-06-19T12:19:22;100419.25;;;26.74;53.79
60725;BME280;59881;36.722;-4.462;2023-06-19T12:21:47;100409.66;;;26.78;53.13
60725;BME280;59881;36.722;-4.462;2023-06-19T12:24:13;100397.47;;;26.62;53.37
60725;BME280;59881;36.722;-4.462;2023-06-19T12:26:38;100411.78;;;26.69;53.16
60725;BME280;59881;36.722;-4.462;2023-06-19T12:29:06;100405.41;;;26.57;53.16
60725;BME280;59881;36.722;-4.462;2023-06-19T12:31:35;100405.84;;;26.40;54.17
60725;BME280;59881;36.722;-4.462;2023-06-19T12:34:04;100404.63;;;26.23;54.63
60725;BME280;59881;36.722;-4.462;2023-06-19T12:36:31;100396.31;;;26.31;54.36
60725;BME280;59881;36.722;-4.462;2023-06-19T12:38:58;100364.63;;;26.00;54.71
60725;BME280;59881;36.722;-4.462;2023-06-19T12:41:25;100342.00;;;25.94;54.89
60725;BME280;59881;36.722;-4.462;2023-06-19T12:43:51;100251.63;;;25.45;54.61
60725;BME280;59881;36.722;-4.462;2023-06-19T12:46:16;100395.13;;;26.14;55.30
60725;BME280;59881;36.722;-4.462;2023-06-19T14:13:22;100280.06;;;25.21;58.95
60725;BME280;59881;36.722;-4.462;2023-06-19T14:15:47;99729.28;;;21.79;59.01
60725;BME280;59881;36.722;-4.462;2023-06-19T14:18:13;100073.44;;;24.15;58.71
60725;BME280;59881;36.722;-4.462;2023-06-19T14:20:38;99946.03;;;23.21;59.09
60725;BME280;59881;36.722;-4.462;2023-06-19T14:23:04;100001.75;;;23.54;59.64
60725;BME280;59881;36.722;-4.462;2023-06-19T14:25:29;100168.56;;;24.69;59.34
60725;BME280;59881;36.722;-4.462;2023-06-19T14:27:55;100047.94;;;23.91;58.54
60725;BME280;59881;36.722;-4.462;2023-06-19T14:30:20;100096.81;;;24.21;59.09
60725;BME280;59881;36.722;-4.462;2023-06-19T14:32:47;100287.09;;;25.49;58.40
60725;BME280;59881;36.722;-4.462;2023-06-19T14:35:12;100282.31;;;25.57;57.73
60725;BME280;59881;36.722;-4.462;2023-06-19T14:37:38;100334.94;;;25.87;57.81
60725;BME280;59881;36.722;-4.462;2023-06-19T14:40:04;100330.56;;;25.86;57.58
60725;BME280;59881;36.722;-4.462;2023-06-19T14:42:29;100300.34;;;25.44;57.90
60725;BME280;59881;36.722;-4.462;2023-06-19T14:44:55;100225.94;;;24.83;58.12
60725;BME280;59881;36.722;-4.462;2023-06-19T14:47:21;100327.94;;;25.32;58.44
60725;BME280;59881;36.722;-4.462;2023-06-19T14:49:46;100161.44;;;24.34;58.41
60725;BME280;59881;36.722;-4.462;2023-06-19T14:52:13;100303.03;;;25.17;58.76
60725;BME280;59881;36.722;-4.462;2023-06-19T14:54:39;100318.84;;;25.33;58.70
60725;BME280;59881;36.722;-4.462;2023-06-19T14:57:04;100222.63;;;24.74;58.60
60725;BME280;59881;36.722;-4.462;2023-06-19T14:59:30;100319.47;;;25.35;58.56
60725;BME280;59881;36.722;-4.462;2023-06-19T15:01:56;100301.00;;;25.19;58.16
60725;BME280;59881;36.722;-4.462;2023-06-19T15:04:21;100303.25;;;25.09;58.30
60725;BME280;59881;36.722;-4.462;2023-06-19T15:06:48;100333.72;;;24.96;58.77
60725;BME280;59881;36.722;-4.462;2023-06-19T15:09:13;99792.56;;;21.73;59.26